createdAt,value
2024-04-01T00:00:21.759Z,114.40
2024-04-01T00:01:21.824Z,115.52
2024-04-01T00:02:21.843Z,117.14
2024-04-01T00:03:21.895Z,113.58
2024-04-01T00:04:21.965Z,114.55
2024-04-01T00:05:21.983Z,111.76
2024-04-01T00:06:22.025Z,110.82
2024-04-01T00:07:22.083Z,111.71
2024-04-01T00:08:22.142Z,114.30
2024-04-01T00:09:22.147Z,113.85
2024-04-01T00:10:22.224Z,115.40
2024-04-01T00:11:22.248Z,110.18
2024-04-01T00:12:22.288Z,110.45
2024-04-01T00:13:22.365Z,112.83
2024-04-01T00:14:22.386Z,111.41
2024-04-01T00:15:22.405Z,108.68
2024-04-01T00:16:22.500Z,108.18
2024-04-01T00:17:22.483Z,108.24
2024-04-01T00:18:22.511Z,105.31
2024-04-01T00:19:22.572Z,109.96
2024-04-01T00:20:22.584Z,109.68
2024-04-01T00:21:22.630Z,111.47
2024-04-01T00:22:22.670Z,108.11
2024-04-01T00:23:22.706Z,112.76
2024-04-01T00:24:22.724Z,107.89
2024-04-01T00:25:22.792Z,109.39
2024-04-01T00:26:22.810Z,113.18
2024-04-01T00:27:22.844Z,112.62
2024-04-01T00:28:22.883Z,111.14
2024-04-01T00:29:22.849Z,113.01
2024-04-01T00:30:22.847Z,109.20
2024-04-01T00:31:22.865Z,110.99
2024-04-01T00:32:22.872Z,110.35
2024-04-01T00:33:22.857Z,107.25
2024-04-01T00:34:26.631Z,109.75
2024-04-01T00:35:23.858Z,109.80
2024-04-01T00:36:22.855Z,109.86
2024-04-01T00:37:22.870Z,110.12
2024-04-01T00:38:22.866Z,111.00
2024-04-01T00:39:22.853Z,113.20
2024-04-01T00:40:22.878Z,111.74
2024-04-01T00:41:22.862Z,113.45
2024-04-01T00:42:22.859Z,107.46
2024-04-01T00:43:22.868Z,109.94
2024-04-01T00:44:22.856Z,112.32
2024-04-01T00:45:22.872Z,113.97
2024-04-01T00:46:22.874Z,114.51
2024-04-01T00:47:22.866Z,110.96
2024-04-01T00:48:22.898Z,108.36
2024-04-01T00:49:23.006Z,110.30
2024-04-01T00:50:22.982Z,109.11
2024-04-01T00:51:23.007Z,111.66
2024-04-01T00:52:23.081Z,113.93
2024-04-01T00:53:23.092Z,113.39
2024-04-01T00:54:23.132Z,108.87
2024-04-01T00:55:23.197Z,111.71
2024-04-01T00:56:23.224Z,112.10
2024-04-01T00:57:23.297Z,112.63
2024-04-01T00:58:23.378Z,109.67
2024-04-01T00:59:23.371Z,112.26
2024-04-01T01:00:23.415Z,113.42
2024-04-01T01:01:23.482Z,112.32
2024-04-01T01:02:25.025Z,114.92
2024-04-01T01:03:23.509Z,112.22
2024-04-01T01:04:23.543Z,113.39
2024-04-01T01:05:23.516Z,115.85
2024-04-01T01:06:23.510Z,114.07
2024-04-01T01:07:23.537Z,112.66
2024-04-01T01:08:23.514Z,108.15
2024-04-01T01:09:23.525Z,109.37
2024-04-01T01:10:23.575Z,109.73
2024-04-01T01:11:23.510Z,111.13
2024-04-01T01:12:23.518Z,112.01
2024-04-01T01:13:23.563Z,108.73
2024-04-01T01:14:23.518Z,107.61
2024-04-01T01:15:23.521Z,108.93
2024-04-01T01:16:23.566Z,111.24
2024-04-01T01:17:23.561Z,108.22
2024-04-01T01:18:23.548Z,107.28
2024-04-01T01:19:23.557Z,106.50
2024-04-01T01:20:23.523Z,108.52
2024-04-01T01:21:23.530Z,108.42
2024-04-01T01:22:23.585Z,106.79
2024-04-01T01:23:23.545Z,105.45
2024-04-01T01:24:23.540Z,106.68
2024-04-01T01:25:23.565Z,104.94
2024-04-01T01:26:23.542Z,106.27
2024-04-01T01:27:23.549Z,106.86
2024-04-01T01:28:23.596Z,107.16
2024-04-01T01:29:23.541Z,106.53
2024-04-01T01:30:23.544Z,106.91
2024-04-01T01:31:23.585Z,103.47
2024-04-01T01:32:23.562Z,105.71
2024-04-01T01:33:23.548Z,107.24
2024-04-01T01:34:23.557Z,107.55
2024-04-01T01:35:23.555Z,103.33
2024-04-01T01:36:23.548Z,106.15
2024-04-01T01:37:23.597Z,105.66
2024-04-01T01:38:23.565Z,101.82
2024-04-01T01:39:23.554Z,102.58
2024-04-01T01:40:23.590Z,104.61
2024-04-01T01:41:23.565Z,102.12
2024-04-01T01:42:23.560Z,103.85
2024-04-01T01:43:23.584Z,103.60
2024-04-01T01:44:23.565Z,102.71
2024-04-01T01:45:23.559Z,102.88
2024-04-01T01:46:23.613Z,104.17
2024-04-01T01:47:23.571Z,104.69
2024-04-01T01:48:23.566Z,101.55
2024-04-01T01:49:23.659Z,99.94
2024-04-01T01:50:23.661Z,100.44
2024-04-01T01:51:23.682Z,104.41
2024-04-01T01:52:23.715Z,101.92
2024-04-01T01:53:23.691Z,103.17
2024-04-01T01:54:23.681Z,102.30
2024-04-01T01:55:23.720Z,102.43
2024-04-01T01:56:23.683Z,105.03
2024-04-01T01:57:23.699Z,106.33
2024-04-01T01:58:23.717Z,108.42
2024-04-01T01:59:23.698Z,109.55
2024-04-01T02:00:23.716Z,109.64
2024-04-01T02:01:23.716Z,109.59
2024-04-01T02:02:23.704Z,109.86
2024-04-01T02:03:23.716Z,112.13
2024-04-01T02:04:23.734Z,113.54
2024-04-01T02:05:23.704Z,115.75
2024-04-01T02:06:23.704Z,114.51
2024-04-01T02:07:23.744Z,115.83
2024-04-01T02:08:23.715Z,114.27
2024-04-01T02:09:23.720Z,118.04
2024-04-01T02:10:23.730Z,117.95
2024-04-01T02:11:23.719Z,119.28
2024-04-01T02:12:23.729Z,122.88
2024-04-01T02:13:23.765Z,122.79
2024-04-01T02:14:23.719Z,125.07
2024-04-01T02:15:23.755Z,127.21
2024-04-01T02:16:23.793Z,127.03
2024-04-01T02:17:23.831Z,129.28
2024-04-01T02:18:23.882Z,133.88
2024-04-01T02:19:23.912Z,133.89
2024-04-01T02:20:23.938Z,135.00
2024-04-01T02:21:23.971Z,136.41
2024-04-01T02:22:24.034Z,138.68
2024-04-01T02:23:24.067Z,140.74
2024-04-01T02:24:24.083Z,142.63
2024-04-01T02:25:24.123Z,142.23
2024-04-01T02:26:24.166Z,142.48
2024-04-01T02:27:24.164Z,142.61
2024-04-01T02:28:24.174Z,143.37
2024-04-01T02:29:24.176Z,145.14
2024-04-01T02:30:24.166Z,149.57
2024-04-01T02:31:24.184Z,149.67
2024-04-01T02:32:24.179Z,151.09
2024-04-01T02:33:24.179Z,154.72
2024-04-01T02:34:24.236Z,156.18
2024-04-01T02:35:24.206Z,157.21
2024-04-01T02:36:24.175Z,157.98
2024-04-01T02:37:24.184Z,160.11
2024-04-01T02:38:24.197Z,160.21
2024-04-01T02:39:24.186Z,162.74
2024-04-01T02:40:24.235Z,162.83
2024-04-01T02:41:24.204Z,162.90
2024-04-01T02:42:24.180Z,163.37
2024-04-01T02:43:24.217Z,164.91
2024-04-01T02:44:24.187Z,169.54
2024-04-01T02:45:24.207Z,165.23
2024-04-01T02:46:24.200Z,167.24
2024-04-01T02:47:24.210Z,167.20
2024-04-01T02:48:24.183Z,164.12
2024-04-01T02:49:24.196Z,169.48
2024-04-01T02:50:24.181Z,168.96
2024-04-01T02:51:24.187Z,172.05
2024-04-01T02:52:24.187Z,170.05
2024-04-01T02:53:24.203Z,172.98
2024-04-01T02:54:24.190Z,172.43
2024-04-01T02:55:24.192Z,175.82
2024-04-01T02:56:24.188Z,176.17
2024-04-01T02:57:24.232Z,176.06
2024-04-01T02:58:24.248Z,178.17
2024-04-01T02:59:24.267Z,177.76
2024-04-01T03:00:24.320Z,178.15
2024-04-01T03:01:24.355Z,177.88
2024-04-01T03:02:24.374Z,180.27
2024-04-01T03:03:24.440Z,179.89
2024-04-01T03:04:24.450Z,181.02
2024-04-01T03:05:24.479Z,181.84
2024-04-01T03:06:24.500Z,180.51
2024-04-01T03:07:24.546Z,180.52
2024-04-01T03:08:24.572Z,181.53
2024-04-01T03:09:24.617Z,182.45
2024-04-01T03:10:24.629Z,182.26
2024-04-01T03:11:24.674Z,185.24
2024-04-01T03:12:24.708Z,183.95
2024-04-01T03:13:24.737Z,187.54
2024-04-01T03:14:24.758Z,187.36
2024-04-01T03:15:24.810Z,189.57
2024-04-01T03:16:24.853Z,187.12
2024-04-01T03:17:26.618Z,187.89
2024-04-01T03:18:24.909Z,189.57
2024-04-01T03:19:24.939Z,188.90
2024-04-01T03:20:24.958Z,190.55
2024-04-01T03:21:25.009Z,192.41
2024-04-01T03:22:25.042Z,191.92
2024-04-01T03:23:25.076Z,193.24
2024-04-01T03:24:25.086Z,194.80
2024-04-01T03:25:25.138Z,192.49
2024-04-01T03:26:25.155Z,188.13
2024-04-01T03:27:25.204Z,178.40
2024-04-01T03:28:25.226Z,165.78
2024-04-01T03:29:25.254Z,160.77
2024-04-01T03:30:25.301Z,149.38
2024-04-01T03:31:25.357Z,140.04
2024-04-01T03:32:25.470Z,132.18
2024-04-01T03:33:25.480Z,122.47
2024-04-01T03:34:25.583Z,114.56
2024-04-01T03:35:25.549Z,104.12
2024-04-01T03:36:26.441Z,94.30
2024-04-01T03:37:25.568Z,84.85
2024-04-01T03:38:25.590Z,77.14
2024-04-01T03:39:25.593Z,68.61
2024-04-01T03:40:25.614Z,60.85
2024-04-01T03:41:25.641Z,52.69
2024-04-01T03:42:25.673Z,49.92
2024-04-01T03:43:25.718Z,49.78
2024-04-01T03:44:25.734Z,49.87
2024-04-01T03:45:25.746Z,49.90
2024-04-01T03:46:25.808Z,50.00
2024-04-01T03:47:25.795Z,50.02
2024-04-01T03:48:25.844Z,49.67
2024-04-01T03:49:25.875Z,49.97
2024-04-01T03:50:25.907Z,50.06
2024-04-01T03:51:25.926Z,49.14
2024-04-01T03:52:25.973Z,50.00
2024-04-01T03:53:26.014Z,50.00
2024-04-01T03:54:26.050Z,50.00
2024-04-01T03:55:26.100Z,50.00
2024-04-01T03:56:26.127Z,50.00
2024-04-01T03:57:26.176Z,50.91
2024-04-01T03:58:26.251Z,50.00
2024-04-01T03:59:26.237Z,50.33
2024-04-01T04:00:26.295Z,52.85
2024-04-01T04:01:26.372Z,54.14
2024-04-01T04:02:26.367Z,52.00
2024-04-01T04:03:26.390Z,52.02
2024-04-01T04:04:26.411Z,51.23
2024-04-01T04:05:26.377Z,49.46
2024-04-01T04:06:26.386Z,49.51
2024-04-01T04:07:26.380Z,48.23
2024-04-01T04:08:26.376Z,50.38
2024-04-01T04:09:26.372Z,50.69
2024-04-01T04:10:26.400Z,52.71
2024-04-01T04:11:26.375Z,50.45
2024-04-01T04:12:26.370Z,50.67
2024-04-01T04:13:26.399Z,50.43
2024-04-01T04:14:26.406Z,50.98
2024-04-01T04:15:26.465Z,50.26
2024-04-01T04:16:26.534Z,49.80
2024-04-01T04:17:26.626Z,50.81
2024-04-01T04:18:26.652Z,51.55
2024-04-01T04:19:26.752Z,50.20
2024-04-01T04:20:26.798Z,50.00
2024-04-01T04:21:26.837Z,50.00
2024-04-01T04:22:34.050Z,50.00
2024-04-01T04:23:34.045Z,50.00
2024-04-01T04:24:34.042Z,50.00
2024-04-01T04:25:34.054Z,50.00
2024-04-01T04:26:34.042Z,50.00
2024-04-01T04:27:34.049Z,50.00
2024-04-01T04:28:34.075Z,50.00
2024-04-01T04:29:34.050Z,50.00
2024-04-01T04:30:34.048Z,50.00
2024-04-01T04:31:41.248Z,50.00
2024-04-01T04:32:41.327Z,50.00
2024-04-01T04:33:41.244Z,50.00
2024-04-01T04:34:41.239Z,50.00
2024-04-01T04:35:41.262Z,50.00
2024-04-01T04:36:41.266Z,52.67
2024-04-01T04:37:41.252Z,52.40
2024-04-01T04:38:41.247Z,53.18
2024-04-01T04:39:41.255Z,53.93
2024-04-01T04:40:41.254Z,52.29
2024-04-01T04:41:41.267Z,52.79
2024-04-01T04:42:41.288Z,50.31
2024-04-01T04:43:41.275Z,51.83
2024-04-01T04:44:41.261Z,50.63
2024-04-01T04:45:41.274Z,52.79
2024-04-01T04:46:41.267Z,52.76
2024-04-01T04:47:41.256Z,50.88
2024-04-01T04:48:41.274Z,50.23
2024-04-01T04:49:41.269Z,52.11
2024-04-01T04:50:41.265Z,52.27
2024-04-01T04:51:41.275Z,52.99
2024-04-01T04:52:41.337Z,51.37
2024-04-01T04:53:41.272Z,54.59
2024-04-01T04:54:41.265Z,51.80
2024-04-01T04:55:41.273Z,52.99
2024-04-01T04:56:41.269Z,53.49
2024-04-01T04:57:41.270Z,54.31
2024-04-01T04:58:41.292Z,52.15
2024-04-01T04:59:41.275Z,52.79
2024-04-01T05:00:41.293Z,55.64
2024-04-01T05:01:41.288Z,55.67
2024-04-01T05:02:42.744Z,54.60
2024-04-01T05:03:41.278Z,52.85
2024-04-01T05:04:41.295Z,55.29
2024-04-01T05:05:41.294Z,53.36
2024-04-01T05:06:41.306Z,54.80
2024-04-01T05:07:41.294Z,56.99
2024-04-01T05:08:41.293Z,53.43
2024-04-01T05:09:41.302Z,54.62
2024-04-01T05:10:41.309Z,55.09
2024-04-01T05:11:41.324Z,55.87
2024-04-01T05:12:41.417Z,54.71
2024-04-01T05:13:41.482Z,55.46
2024-04-01T05:14:41.543Z,53.95
2024-04-01T05:15:41.613Z,53.21
2024-04-01T05:16:41.668Z,53.62
2024-04-01T05:17:41.728Z,54.33
2024-04-01T05:18:41.798Z,52.61
2024-04-01T05:19:41.880Z,55.84
2024-04-01T05:20:41.932Z,54.21
2024-04-01T05:21:42.000Z,55.07
2024-04-01T05:22:42.065Z,55.55
2024-04-01T05:23:42.126Z,53.13
2024-04-01T05:24:42.208Z,57.22
2024-04-01T05:25:42.262Z,57.32
2024-04-01T05:26:42.332Z,53.84
2024-04-01T05:27:42.407Z,56.33
2024-04-01T05:28:42.493Z,55.45
2024-04-01T05:29:42.551Z,56.77
2024-04-01T05:30:42.607Z,56.24
2024-04-01T05:31:42.670Z,58.31
2024-04-01T05:32:42.741Z,57.17
2024-04-01T05:33:42.799Z,57.50
2024-04-01T05:34:42.873Z,55.84
2024-04-01T05:35:42.932Z,55.34
2024-04-01T05:36:42.994Z,58.01
2024-04-01T05:37:43.059Z,58.28
2024-04-01T05:38:43.145Z,57.13
2024-04-01T05:39:43.206Z,58.20
2024-04-01T05:40:43.277Z,60.45
2024-04-01T05:41:43.343Z,59.28
2024-04-01T05:42:43.418Z,59.96
2024-04-01T05:43:43.494Z,59.48
2024-04-01T05:44:43.555Z,58.83
2024-04-01T05:45:43.642Z,58.37
2024-04-01T05:46:43.676Z,59.60
2024-04-01T05:47:43.782Z,57.74
2024-04-01T05:48:43.813Z,60.18
2024-04-01T05:49:43.896Z,59.49
2024-04-01T05:50:43.955Z,58.66
2024-04-01T05:51:44.020Z,59.02
2024-04-01T05:52:44.087Z,58.98
2024-04-01T05:53:44.161Z,58.73
2024-04-01T05:54:44.231Z,59.31
2024-04-01T05:55:44.302Z,58.20
2024-04-01T05:56:44.371Z,58.36
2024-04-01T05:57:44.426Z,57.39
2024-04-01T05:58:44.517Z,59.31
2024-04-01T05:59:44.525Z,61.45
2024-04-01T06:00:44.581Z,59.38
2024-04-01T06:01:44.621Z,59.19
2024-04-01T06:02:44.705Z,61.24
2024-04-01T06:03:44.738Z,62.77
2024-04-01T06:04:44.798Z,62.21
2024-04-01T06:05:44.875Z,64.60
2024-04-01T06:06:44.949Z,60.21
2024-04-01T06:07:44.997Z,63.73
2024-04-01T06:08:45.089Z,62.35
2024-04-01T06:09:45.139Z,66.11
2024-04-01T06:10:45.209Z,64.44
2024-04-01T06:11:45.278Z,62.95
2024-04-01T06:12:45.367Z,64.79
2024-04-01T06:13:45.429Z,62.72
2024-04-01T06:14:45.485Z,61.94
2024-04-01T06:15:45.553Z,63.11
2024-04-01T06:16:45.606Z,61.92
2024-04-01T06:17:45.639Z,60.59
2024-04-01T06:18:45.720Z,62.65
2024-04-01T06:19:45.732Z,62.34
2024-04-01T06:20:45.740Z,63.76
2024-04-01T06:21:45.767Z,62.92
2024-04-01T06:22:45.797Z,63.16
2024-04-01T06:23:45.801Z,62.85
2024-04-01T06:24:45.795Z,60.22
2024-04-01T06:25:45.820Z,63.57
2024-04-01T06:26:45.835Z,66.78
2024-04-01T06:27:45.848Z,65.68
2024-04-01T06:28:45.886Z,63.54
2024-04-01T06:29:45.867Z,67.45
2024-04-01T06:30:45.902Z,64.32
2024-04-01T06:31:45.918Z,63.56
2024-04-01T06:32:45.943Z,65.35
2024-04-01T06:33:45.947Z,65.00
2024-04-01T06:34:45.961Z,68.44
2024-04-01T06:35:45.999Z,65.05
2024-04-01T06:36:46.008Z,65.53
2024-04-01T06:37:46.001Z,67.94
2024-04-01T06:38:46.051Z,66.07
2024-04-01T06:39:46.057Z,66.17
2024-04-01T06:40:46.104Z,68.76
2024-04-01T06:41:46.184Z,68.28
2024-04-01T06:42:46.276Z,68.88
2024-04-01T06:43:46.341Z,70.07
2024-04-01T06:44:46.401Z,65.87
2024-04-01T06:45:46.461Z,66.28
2024-04-01T06:46:46.516Z,69.81
2024-04-01T06:47:46.598Z,65.85
2024-04-01T06:48:46.654Z,66.10
2024-04-01T06:49:46.719Z,71.14
2024-04-01T06:50:46.804Z,68.12
2024-04-01T06:51:46.859Z,69.96
2024-04-01T06:52:46.937Z,68.92
2024-04-01T06:53:47.023Z,70.59
2024-04-01T06:54:47.073Z,72.32
2024-04-01T06:55:47.145Z,73.17
2024-04-01T06:56:47.219Z,73.46
2024-04-01T06:57:47.293Z,75.21
2024-04-01T06:58:47.345Z,73.97
2024-04-01T06:59:47.425Z,72.06
2024-04-01T07:00:47.459Z,71.40
2024-04-01T07:01:47.496Z,71.33
2024-04-01T07:02:47.550Z,70.25
2024-04-01T07:03:47.605Z,70.38
2024-04-01T07:04:47.648Z,70.46
2024-04-01T07:05:47.670Z,71.19
2024-04-01T07:06:47.681Z,70.61
2024-04-01T07:07:47.732Z,69.48
2024-04-01T07:08:47.783Z,71.73
2024-04-01T07:09:47.828Z,71.72
2024-04-01T07:10:47.905Z,71.02
2024-04-01T07:11:47.914Z,71.52
2024-04-01T07:12:47.942Z,71.26
2024-04-01T07:13:47.973Z,72.73
2024-04-01T07:14:47.989Z,71.73
2024-04-01T07:15:48.033Z,74.30
2024-04-01T07:16:48.032Z,74.28
2024-04-01T07:17:48.044Z,74.13
2024-04-01T07:18:48.050Z,74.79
2024-04-01T07:19:48.064Z,74.18
2024-04-01T07:20:48.068Z,76.65
2024-04-01T07:21:48.072Z,77.93
2024-04-01T07:22:48.099Z,77.74
2024-04-01T07:23:48.114Z,79.08
2024-04-01T07:24:48.122Z,78.25
2024-04-01T07:25:48.134Z,79.82
2024-04-01T07:26:48.156Z,79.47
2024-04-01T07:27:48.159Z,79.86
2024-04-01T07:28:48.184Z,81.19
2024-04-01T07:29:48.190Z,85.72
2024-04-01T07:30:48.218Z,85.54
2024-04-01T07:31:48.204Z,87.15
2024-04-01T07:32:48.232Z,87.27
2024-04-01T07:33:48.260Z,88.28
2024-04-01T07:34:48.253Z,90.93
2024-04-01T07:35:48.256Z,93.44
2024-04-01T07:36:48.265Z,94.23
2024-04-01T07:37:48.268Z,96.51
2024-04-01T07:38:48.281Z,98.15
2024-04-01T07:39:48.293Z,97.56
2024-04-01T07:40:48.290Z,99.90
2024-04-01T07:41:48.303Z,101.46
2024-04-01T07:42:48.303Z,103.51
2024-04-01T07:43:48.336Z,104.22
2024-04-01T07:44:48.326Z,104.84
2024-04-01T07:45:48.332Z,107.11
2024-04-01T07:46:48.345Z,109.03
2024-04-01T07:47:48.357Z,112.03
2024-04-01T07:48:48.391Z,112.06
2024-04-01T07:49:48.360Z,112.28
2024-04-01T07:50:48.365Z,112.38
2024-04-01T07:51:48.361Z,114.49
2024-04-01T07:52:48.390Z,119.23
2024-04-01T07:53:48.369Z,118.69
2024-04-01T07:54:48.375Z,117.74
2024-04-01T07:55:48.385Z,118.23
2024-04-01T07:56:48.386Z,117.29
2024-04-01T07:57:48.371Z,116.93
2024-04-01T07:58:48.377Z,113.50
2024-04-01T07:59:48.380Z,112.18
2024-04-01T08:00:48.377Z,111.79
2024-04-01T08:01:48.391Z,111.23
2024-04-01T08:02:48.390Z,110.44
2024-04-01T08:03:48.398Z,107.96
2024-04-01T08:04:48.835Z,107.19
2024-04-01T08:05:48.376Z,107.36
2024-04-01T08:06:48.385Z,105.06
2024-04-01T08:07:48.389Z,102.83
2024-04-01T08:08:48.397Z,101.46
2024-04-01T08:09:48.386Z,102.22
2024-04-01T08:10:48.427Z,100.65
2024-04-01T08:11:48.405Z,101.82
2024-04-01T08:12:48.393Z,97.28
2024-04-01T08:13:48.399Z,97.37
2024-04-01T08:14:48.406Z,96.79
2024-04-01T08:15:48.406Z,95.84
2024-04-01T08:16:48.411Z,94.27
2024-04-01T08:17:48.417Z,92.92
2024-04-01T08:18:48.425Z,90.31
2024-04-01T08:19:48.406Z,88.98
2024-04-01T08:20:48.404Z,87.49
2024-04-01T08:21:48.417Z,83.99
2024-04-01T08:22:48.439Z,85.74
2024-04-01T08:23:48.427Z,82.21
2024-04-01T08:24:48.416Z,80.24
2024-04-01T08:25:48.421Z,78.55
2024-04-01T08:26:48.497Z,75.78
2024-04-01T08:27:48.534Z,76.15
2024-04-01T08:28:48.600Z,75.59
2024-04-01T08:29:48.669Z,72.98
2024-04-01T08:30:48.729Z,72.30
2024-04-01T08:31:48.803Z,69.85
2024-04-01T08:32:48.910Z,70.44
2024-04-01T08:33:48.916Z,67.06
2024-04-01T08:34:48.903Z,66.91
2024-04-01T08:35:48.919Z,66.24
2024-04-01T08:36:48.922Z,65.50
2024-04-01T08:37:48.924Z,62.55
2024-04-01T08:38:48.932Z,61.79
2024-04-01T08:39:49.306Z,60.88
2024-04-01T08:40:48.944Z,61.07
2024-04-01T08:41:48.934Z,59.45
2024-04-01T08:42:48.957Z,60.66
2024-04-01T08:43:48.966Z,65.84
2024-04-01T08:44:48.942Z,64.83
2024-04-01T08:45:49.024Z,63.18
2024-04-01T08:46:49.036Z,63.64
2024-04-01T08:47:49.174Z,61.18
2024-04-01T08:48:49.151Z,61.19
2024-04-01T08:49:49.193Z,61.18
2024-04-01T08:50:49.251Z,63.29
2024-04-01T08:51:49.289Z,61.61
2024-04-01T08:52:49.359Z,61.78
2024-04-01T08:53:49.392Z,63.51
2024-04-01T08:54:49.444Z,63.51
2024-04-01T08:55:49.495Z,62.21
2024-04-01T08:56:49.580Z,61.55
2024-04-01T08:57:49.602Z,61.01
2024-04-01T08:58:49.570Z,59.85
2024-04-01T08:59:49.594Z,59.87
2024-04-01T09:00:49.582Z,59.70
2024-04-01T09:01:49.585Z,60.84
2024-04-01T09:02:49.577Z,61.46
2024-04-01T09:03:49.595Z,62.96
2024-04-01T09:04:49.582Z,60.90
2024-04-01T09:05:49.576Z,63.99
2024-04-01T09:06:49.569Z,64.69
2024-04-01T09:07:49.586Z,62.15
2024-04-01T09:08:49.577Z,65.61
2024-04-01T09:09:49.596Z,65.30
2024-04-01T09:10:49.591Z,64.11
2024-04-01T09:11:49.575Z,68.27
2024-04-01T09:12:49.580Z,66.05
2024-04-01T09:13:49.589Z,66.54
2024-04-01T09:14:49.593Z,64.84
2024-04-01T09:15:49.602Z,70.14
2024-04-01T09:16:49.605Z,67.50
2024-04-01T09:17:49.589Z,70.49
2024-04-01T09:18:49.606Z,69.39
2024-04-01T09:19:49.615Z,70.70
2024-04-01T09:20:49.582Z,74.75
2024-04-01T09:21:49.592Z,74.16
2024-04-01T09:22:49.595Z,75.65
2024-04-01T09:23:49.628Z,77.44
2024-04-01T09:24:49.614Z,83.09
2024-04-01T09:25:49.660Z,82.69
2024-04-01T09:26:49.725Z,84.48
2024-04-01T09:27:49.731Z,84.63
2024-04-01T09:28:49.740Z,85.50
2024-04-01T09:29:49.749Z,87.50
2024-04-01T09:30:49.737Z,92.86
2024-04-01T09:31:49.751Z,105.51
2024-04-01T09:32:49.750Z,111.21
2024-04-01T09:33:49.751Z,112.91
2024-04-01T09:34:49.744Z,121.73
2024-04-01T09:35:51.715Z,125.68
2024-04-01T09:36:49.752Z,131.67
2024-04-01T09:37:49.765Z,133.73
2024-04-01T09:38:49.792Z,140.57
2024-04-01T09:39:49.815Z,144.51
2024-04-01T09:40:49.822Z,149.22
2024-04-01T09:41:49.865Z,154.30
2024-04-01T09:42:49.899Z,158.85
2024-04-01T09:43:51.954Z,162.18
2024-04-01T09:44:49.936Z,162.41
2024-04-01T09:45:49.952Z,163.89
2024-04-01T09:46:49.933Z,167.18
2024-04-01T09:47:49.936Z,173.54
2024-04-01T09:48:49.958Z,184.59
2024-04-01T09:49:49.940Z,187.91
2024-04-01T09:50:49.944Z,192.11
2024-04-01T09:51:49.944Z,195.72
2024-04-01T09:52:49.964Z,200.00
2024-04-01T09:53:49.958Z,200.16
2024-04-01T09:54:49.955Z,199.88
2024-04-01T09:55:49.960Z,199.79
2024-04-01T09:56:49.951Z,198.86
2024-04-01T09:57:49.948Z,199.87
2024-04-01T09:58:49.966Z,198.82
2024-04-01T09:59:49.963Z,199.91
2024-04-01T10:00:49.954Z,199.05
2024-04-01T10:01:49.951Z,200.00
2024-04-01T10:02:49.942Z,198.48
2024-04-01T10:03:49.953Z,200.00
2024-04-01T10:04:49.952Z,200.00
2024-04-01T10:05:49.947Z,200.00
2024-04-01T10:06:49.963Z,200.00
2024-04-01T10:07:49.960Z,199.93
2024-04-01T10:08:49.983Z,200.00
2024-04-01T10:09:49.967Z,199.38
2024-04-01T10:10:49.956Z,199.53
2024-04-01T10:11:49.958Z,199.98
2024-04-01T10:12:49.954Z,200.00
2024-04-01T10:13:49.975Z,199.65
2024-04-01T10:14:49.960Z,199.70
2024-04-01T10:15:51.142Z,199.34
2024-04-01T10:16:50.007Z,200.00
2024-04-01T10:17:49.993Z,199.71
2024-04-01T10:18:49.989Z,199.80
2024-04-01T10:19:50.002Z,200.18
2024-04-01T10:20:49.996Z,201.38
2024-04-01T10:21:50.007Z,204.06
2024-04-01T10:22:49.997Z,207.44
2024-04-01T10:23:50.017Z,200.00
2024-04-01T10:24:49.992Z,199.39
2024-04-01T10:25:50.017Z,199.20
2024-04-01T10:26:50.002Z,200.00
2024-04-01T10:27:50.005Z,200.02
2024-04-01T10:28:50.028Z,200.17
2024-04-01T10:29:50.032Z,200.62
2024-04-01T10:30:50.002Z,201.78
2024-04-01T10:31:50.020Z,203.18
2024-04-01T10:32:50.049Z,199.84
2024-04-01T10:33:50.028Z,199.09
2024-04-01T10:35:00.757Z,199.40
2024-04-01T10:35:51.016Z,199.44
2024-04-01T10:36:50.020Z,199.67
2024-04-01T10:37:50.039Z,200.16
2024-04-01T10:38:50.031Z,201.02
2024-04-01T10:39:50.024Z,202.37
2024-04-01T10:40:50.024Z,200.00
2024-04-01T10:41:50.026Z,200.00
2024-04-01T10:42:50.044Z,200.00
2024-04-01T10:43:50.117Z,199.83
2024-04-01T10:44:50.173Z,199.42
2024-04-01T10:45:50.232Z,199.68
2024-04-01T10:46:50.287Z,199.11
2024-04-01T10:47:50.354Z,199.49
2024-04-01T10:48:50.398Z,199.61
2024-04-01T10:49:50.458Z,199.73
2024-04-01T10:50:50.459Z,199.77
2024-04-01T10:51:50.478Z,199.86
2024-04-01T10:52:50.506Z,199.92
2024-04-01T10:53:50.470Z,200.40
2024-04-01T10:54:50.461Z,200.93
2024-04-01T10:55:50.482Z,199.16
2024-04-01T10:56:50.476Z,200.00
2024-04-01T10:57:50.475Z,199.41
2024-04-01T10:58:50.532Z,199.90
2024-04-01T10:59:50.554Z,199.77
2024-04-01T11:00:50.604Z,199.46
2024-04-01T11:01:50.693Z,198.89
2024-04-01T11:02:50.741Z,199.11
2024-04-01T11:03:50.777Z,199.23
2024-04-01T11:04:50.841Z,199.20
2024-04-01T11:05:50.992Z,198.97
2024-04-01T11:06:50.941Z,199.80
2024-04-01T11:07:50.999Z,199.05
2024-04-01T11:08:51.042Z,198.86
2024-04-01T11:09:51.091Z,199.31
2024-04-01T11:10:51.149Z,199.09
2024-04-01T11:11:51.200Z,199.18
2024-04-01T11:12:51.256Z,199.79
2024-04-01T11:13:51.307Z,198.42
2024-04-01T11:14:51.357Z,198.24
2024-04-01T11:15:51.421Z,197.98
2024-04-01T11:16:51.462Z,196.27
2024-04-01T11:17:51.536Z,197.22
2024-04-01T11:18:51.603Z,196.16
2024-04-01T11:19:51.663Z,195.07
2024-04-01T11:20:51.690Z,194.98
2024-04-01T11:21:51.768Z,194.31
2024-04-01T11:22:51.802Z,192.93
2024-04-01T11:23:51.885Z,192.57
2024-04-01T11:24:51.933Z,192.36
2024-04-01T11:25:51.970Z,190.62
2024-04-01T11:26:52.050Z,190.46
2024-04-01T11:27:52.085Z,188.54
2024-04-01T11:28:52.164Z,189.82
2024-04-01T11:29:52.201Z,188.90
2024-04-01T11:30:52.331Z,186.20
2024-04-01T11:31:52.370Z,186.69
2024-04-01T11:32:52.358Z,187.60
2024-04-01T11:33:52.428Z,186.09
2024-04-01T11:34:52.485Z,186.51
2024-04-01T11:35:52.558Z,186.30
2024-04-01T11:36:52.581Z,184.30
2024-04-01T11:37:52.629Z,185.66
2024-04-01T11:38:52.693Z,185.51
2024-04-01T11:39:52.743Z,184.80
2024-04-01T11:40:52.827Z,185.66
2024-04-01T11:41:52.855Z,183.88
2024-04-01T11:42:52.916Z,184.18
2024-04-01T11:43:52.970Z,184.82
2024-04-01T11:44:53.030Z,186.35
2024-04-01T11:45:53.078Z,183.83
2024-04-01T11:46:53.108Z,183.84
2024-04-01T11:47:53.098Z,183.98
2024-04-01T11:48:53.109Z,183.60
2024-04-01T11:49:53.116Z,184.55
2024-04-01T11:50:53.106Z,183.99
2024-04-01T11:51:53.104Z,184.24
2024-04-01T11:52:53.106Z,183.35
2024-04-01T11:53:53.104Z,183.73
2024-04-01T11:54:53.096Z,182.50
2024-04-01T11:55:53.112Z,183.12
2024-04-01T11:56:53.117Z,185.41
2024-04-01T11:57:53.104Z,185.06
2024-04-01T11:58:53.106Z,182.78
2024-04-01T11:59:53.148Z,184.34
2024-04-01T12:00:53.215Z,185.32
2024-04-01T12:01:53.255Z,185.09
2024-04-01T12:02:53.271Z,185.14
2024-04-01T12:03:53.266Z,185.38
2024-04-01T12:04:53.270Z,185.25
2024-04-01T12:05:53.268Z,186.74
2024-04-01T12:06:53.285Z,186.48
2024-04-01T12:07:53.265Z,188.86
2024-04-01T12:08:53.272Z,188.10
2024-04-01T12:09:53.272Z,186.23
2024-04-01T12:10:53.293Z,187.29
2024-04-01T12:11:53.279Z,188.24
2024-04-01T12:12:53.283Z,187.10
2024-04-01T12:13:53.296Z,188.33
2024-04-01T12:14:53.296Z,189.35
2024-04-01T12:15:53.313Z,188.27
2024-04-01T12:16:53.328Z,188.34
2024-04-01T12:17:53.355Z,190.77
2024-04-01T12:18:53.423Z,188.64
2024-04-01T12:19:53.445Z,187.80
2024-04-01T12:20:53.458Z,188.05
2024-04-01T12:21:53.490Z,188.09
2024-04-01T12:22:53.518Z,190.50
2024-04-01T12:23:53.572Z,189.95
2024-04-01T12:24:53.600Z,189.25
2024-04-01T12:25:53.639Z,189.80
2024-04-01T12:26:53.657Z,191.47
2024-04-01T12:27:53.688Z,189.54
2024-04-01T12:28:53.756Z,189.74
2024-04-01T12:29:53.763Z,190.52
2024-04-01T12:30:53.790Z,191.37
2024-04-01T12:31:53.824Z,189.54
2024-04-01T12:32:53.882Z,189.87
2024-04-01T12:33:53.891Z,190.29
2024-04-01T12:34:53.918Z,191.07
2024-04-01T12:35:53.958Z,190.84
2024-04-01T12:36:53.991Z,191.98
2024-04-01T12:37:54.072Z,190.55
2024-04-01T12:38:54.048Z,190.90